Time;durP1;ratioP1;P1;durP2;ratioP2;P2;SDS_P1;SDS_P2;PMS_P1;PMS_P2;Temp;Humidity;BMP_temperature;BMP_pressure;BME280_temperature;BME280_humidity;BME280_pressure;Samples;Min_cycle;Max_cycle;Signal;HPM_P1;HPM_P2
2021/10/03 00:01:01;;;;;;;4.50;4.10;;;16.50;85.50;;;;;;5051863;28;20489;-72
2021/10/03 00:03:27;;;;;;;4.50;4.20;;;16.40;85.40;;;;;;5051312;28;20253;-72
2021/10/03 00:06:01;;;;;;;4.53;4.13;;;16.40;85.40;;;;;;5051610;28;20029;-72
2021/10/03 00:08:27;;;;;;;4.65;4.25;;;16.40;85.20;;;;;;5050994;28;20285;-72
2021/10/03 00:10:54;;;;;;;4.00;3.60;;;16.50;84.70;;;;;;5051686;28;20037;-73
2021/10/03 00:13:23;;;;;;;5.65;4.70;;;16.60;84.40;;;;;;5051536;28;20367;-72
2021/10/03 00:15:50;;;;;;;3.95;3.60;;;16.60;83.90;;;;;;5051668;28;20037;-73
2021/10/03 00:18:19;;;;;;;5.80;4.03;;;16.70;83.10;;;;;;5050949;28;20025;-73
2021/10/03 00:20:46;;;;;;;3.80;3.50;;;16.70;83.30;;;;;;5051591;28;20032;-72
2021/10/03 00:23:13;;;;;;;5.10;4.45;;;16.70;83.30;;;;;;5051008;28;20463;-73
2021/10/03 00:25:40;;;;;;;5.28;4.70;;;16.60;83.20;;;;;;5051492;28;20033;-72
2021/10/03 00:28:08;;;;;;;6.38;3.53;;;16.70;82.90;;;;;;5051534;28;20029;-72
2021/10/03 00:30:39;;;;;;;3.67;3.38;;;16.70;82.40;;;;;;5054409;28;20033;-72
2021/10/03 00:33:06;;;;;;;5.82;4.43;;;16.70;82.50;;;;;;5055910;28;20068;-73
2021/10/03 00:35:34;;;;;;;2.97;2.78;;;16.80;82.50;;;;;;5054975;28;20042;-73
2021/10/03 00:38:04;;;;;;;4.00;3.70;;;16.80;82.60;;;;;;5055028;28;20036;-72
2021/10/03 00:40:32;;;;;;;3.92;3.63;;;16.70;82.90;;;;;;5054210;28;20489;-72
2021/10/03 00:43:02;;;;;;;4.47;4.07;;;16.70;82.90;;;;;;5050333;28;20045;-72
2021/10/03 00:45:31;;;;;;;4.77;4.33;;;16.60;82.80;;;;;;5054651;28;20049;-73
2021/10/03 00:47:58;;;;;;;6.45;4.43;;;16.60;82.80;;;;;;5054920;28;20636;-73
2021/10/03 00:50:27;;;;;;;5.25;4.85;;;16.60;83.20;;;;;;5054476;28;20033;-72
2021/10/03 00:52:55;;;;;;;7.93;4.63;;;16.60;83.60;;;;;;5054796;28;20032;-73
2021/10/03 00:55:21;;;;;;;13.30;4.72;;;16.60;84.10;;;;;;5055061;28;20033;-73
2021/10/03 00:57:51;;;;;;;4.78;4.25;;;16.60;84.10;;;;;;5054733;28;20462;-72
2021/10/03 01:00:21;;;;;;;4.47;4.05;;;16.50;84.20;;;;;;5054033;28;20029;-72
2021/10/03 01:02:47;;;;;;;5.83;5.23;;;16.50;84.50;;;;;;5054669;28;20474;-72
2021/10/03 01:05:14;;;;;;;7.95;3.55;;;16.50;84.30;;;;;;5054407;28;20033;-72
2021/10/03 01:07:40;;;;;;;4.45;4.05;;;16.60;83.90;;;;;;5054766;28;20029;-72
2021/10/03 01:10:10;;;;;;;16.90;4.55;;;16.60;83.80;;;;;;5036874;28;20041;-72
2021/10/03 01:12:37;;;;;;;4.25;3.85;;;16.70;83.60;;;;;;5055253;28;20025;-72
2021/10/03 01:15:06;;;;;;;7.82;3.97;;;16.60;83.20;;;;;;5054975;28;20032;-73
2021/10/03 01:17:32;;;;;;;3.47;3.17;;;16.70;82.70;;;;;;5053957;28;20037;-72
2021/10/03 01:19:59;;;;;;;2.60;2.40;;;16.80;82.60;;;;;;5054567;28;20450;-73
2021/10/03 01:22:29;;;;;;;3.10;2.80;;;16.90;82.00;;;;;;5054199;28;20060;-72
2021/10/03 01:24:58;;;;;;;3.28;2.95;;;16.90;81.80;;;;;;5054465;28;20482;-72
2021/10/03 01:27:25;;;;;;;4.23;3.33;;;16.80;81.60;;;;;;5053966;28;20046;-72
2021/10/03 01:29:51;;;;;;;3.78;3.47;;;16.80;81.50;;;;;;5054457;28;20025;-73
2021/10/03 01:32:18;;;;;;;3.72;3.42;;;16.80;81.30;;;;;;5053762;28;20036;-72
2021/10/03 01:34:45;;;;;;;3.40;3.10;;;16.80;81.20;;;;;;5051916;28;20045;-72
2021/10/03 01:37:11;;;;;;;5.43;3.50;;;16.80;81.00;;;;;;5053170;28;20056;-72
2021/10/03 01:39:39;;;;;;;3.25;2.95;;;16.80;81.00;;;;;;5053149;28;20080;-72
2021/10/03 01:42:08;;;;;;;6.10;3.58;;;16.80;81.20;;;;;;5053720;28;20048;-72
2021/10/03 01:44:35;;;;;;;6.90;3.55;;;16.70;81.50;;;;;;5053220;28;20056;-72
2021/10/03 01:47:01;;;;;;;5.05;3.40;;;16.70;81.30;;;;;;5054078;28;20025;-72
2021/10/03 01:49:29;;;;;;;4.07;3.72;;;16.70;81.20;;;;;;5053444;28;20483;-72
2021/10/03 01:51:55;;;;;;;3.63;3.03;;;16.70;81.40;;;;;;5051469;28;20040;-71
2021/10/03 01:54:22;;;;;;;3.17;2.97;;;16.60;81.30;;;;;;5041638;28;20041;-72
2021/10/03 01:56:51;;;;;;;3.83;3.53;;;16.60;81.30;;;;;;5053208;28;20020;-71
2021/10/03 01:59:17;;;;;;;5.40;3.35;;;16.60;81.20;;;;;;5053085;28;20477;-71
2021/10/03 02:01:46;;;;;;;5.78;3.70;;;16.60;81.40;;;;;;5053942;28;20463;-72
2021/10/03 02:04:22;;;;;;;4.50;3.55;;;16.60;81.20;;;;;;5035178;28;20040;-72
2021/10/03 02:06:50;;;;;;;3.38;3.08;;;16.60;81.10;;;;;;5054256;28;20516;-72
2021/10/03 02:09:18;;;;;;;3.38;3.08;;;16.60;81.10;;;;;;5036412;28;20041;-72
2021/10/03 02:11:50;;;;;;;4.82;3.80;;;16.60;81.20;;;;;;5053365;28;20025;-72
2021/10/03 02:14:18;;;;;;;3.47;3.17;;;16.60;81.20;;;;;;5051651;28;20045;-72
2021/10/03 02:16:45;;;;;;;3.78;3.25;;;16.60;81.10;;;;;;5054722;28;20033;-72
2021/10/03 02:19:11;;;;;;;4.07;3.65;;;16.70;80.90;;;;;;5051171;28;20029;-72
2021/10/03 02:21:39;;;;;;;3.80;3.45;;;16.70;80.70;;;;;;5053479;28;20032;-72
2021/10/03 02:24:06;;;;;;;3.92;3.58;;;16.70;80.40;;;;;;5053105;28;20530;-72
2021/10/03 02:26:34;;;;;;;6.65;3.70;;;16.80;80.90;;;;;;5052695;28;20037;-72
2021/10/03 02:29:00;;;;;;;5.10;3.17;;;16.80;80.00;;;;;;5052978;28;20053;-72
2021/10/03 02:31:29;;;;;;;4.35;3.03;;;16.70;80.10;;;;;;5053013;28;20135;-72
2021/10/03 02:33:55;;;;;;;3.28;2.97;;;16.70;79.80;;;;;;5052828;28;20044;-72
2021/10/03 02:36:22;;;;;;;3.42;3.13;;;16.70;79.40;;;;;;5052540;28;20037;-72
2021/10/03 02:38:50;;;;;;;4.55;3.30;;;16.70;79.10;;;;;;5052651;28;20032;-72
2021/10/03 02:41:18;;;;;;;3.53;3.25;;;16.80;79.00;;;;;;5052831;28;20056;-72
2021/10/03 02:43:48;;;;;;;3.80;3.50;;;16.80;78.80;;;;;;5034808;28;20103;-72
2021/10/03 02:46:16;;;;;;;3.72;3.25;;;16.80;78.80;;;;;;5019984;28;20515;-73
2021/10/03 02:48:49;;;;;;;4.25;3.38;;;16.80;78.70;;;;;;5013660;28;20061;-73
2021/10/03 02:51:19;;;;;;;3.60;3.30;;;16.80;79.10;;;;;;5012710;28;20045;-73
2021/10/03 02:53:47;;;;;;;6.43;3.42;;;16.80;78.90;;;;;;5013454;28;20380;-72
2021/10/03 02:56:18;;;;;;;2.60;2.40;;;16.70;79.00;;;;;;5012705;28;20038;-73
2021/10/03 02:58:45;;;;;;;4.15;3.50;;;16.80;78.70;;;;;;5013197;28;20037;-72
2021/10/03 03:01:12;;;;;;;3.53;3.15;;;16.80;78.10;;;;;;5012953;28;20384;-74
2021/10/03 03:03:38;;;;;;;4.57;3.13;;;16.90;77.80;;;;;;5012850;28;20041;-72
2021/10/03 03:06:06;;;;;;;3.88;2.95;;;16.90;77.10;;;;;;5012791;28;20030;-72
2021/10/03 03:08:33;;;;;;;3.97;3.53;;;17.00;77.20;;;;;;5012044;28;20483;-73
2021/10/03 03:11:00;;;;;;;3.20;2.90;;;17.00;77.10;;;;;;5012829;28;20490;-72
2021/10/03 03:13:29;;;;;;;2.45;2.25;;;17.00;76.80;;;;;;5011899;28;20041;-72
2021/10/03 03:15:57;;;;;;;4.13;2.83;;;17.10;76.00;;;;;;5012939;28;20038;-72
2021/10/03 03:18:23;;;;;;;3.03;2.83;;;17.10;76.10;;;;;;5012223;28;20049;-73
2021/10/03 03:20:50;;;;;;;3.00;2.55;;;17.20;75.20;;;;;;5012192;28;20038;-73
2021/10/03 03:23:16;;;;;;;3.63;3.03;;;17.30;74.80;;;;;;5011770;28;20037;-72
2021/10/03 03:25:43;;;;;;;5.00;3.00;;;17.30;74.90;;;;;;5012437;28;20033;-72
2021/10/03 03:28:11;;;;;;;7.22;2.88;;;17.30;75.20;;;;;;5012630;28;20037;-72
2021/10/03 03:30:38;;;;;;;5.22;3.60;;;17.30;75.40;;;;;;5012219;28;20041;-72
2021/10/03 03:33:05;;;;;;;5.10;2.78;;;17.30;74.40;;;;;;5011879;28;20346;-73
2021/10/03 03:35:31;;;;;;;2.90;2.67;;;17.40;74.20;;;;;;5019832;28;20365;-73
2021/10/03 03:37:58;;;;;;;2.50;2.30;;;17.30;74.60;;;;;;5012220;28;20041;-72
2021/10/03 03:40:24;;;;;;;2.45;2.25;;;17.40;73.90;;;;;;5011642;28;20026;-72
2021/10/03 03:42:51;;;;;;;2.95;2.65;;;17.40;74.00;;;;;;5012489;28;20129;-72
2021/10/03 03:45:17;;;;;;;2.50;2.30;;;17.40;73.80;;;;;;5029677;28;20057;-72
2021/10/03 03:47:43;;;;;;;2.00;1.90;;;17.40;73.50;;;;;;5052243;28;20036;-72
2021/10/03 03:50:17;;;;;;;4.38;2.47;;;17.40;73.30;;;;;;5051578;28;20044;-72
2021/10/03 03:52:43;;;;;;;2.30;2.10;;;17.50;72.70;;;;;;5051310;28;20044;-72
2021/10/03 03:55:11;;;;;;;3.10;2.05;;;17.70;71.50;;;;;;5034607;28;20036;-71
2021/10/03 03:57:37;;;;;;;1.95;1.80;;;17.90;71.00;;;;;;5050198;28;20116;-72
2021/10/03 04:00:06;;;;;;;2.42;2.22;;;17.90;70.80;;;;;;5051548;28;20036;-73
2021/10/03 04:02:32;;;;;;;3.00;1.85;;;18.10;69.30;;;;;;5033767;28;20033;-72
2021/10/03 04:04:58;;;;;;;1.83;1.70;;;18.30;68.30;;;;;;5055819;28;20036;-72
2021/10/03 04:07:25;;;;;;;1.88;1.52;;;18.40;68.40;;;;;;5055273;28;20037;-72
2021/10/03 04:09:51;;;;;;;1.73;1.63;;;18.40;68.00;;;;;;5055693;28;20036;-73
2021/10/03 04:12:17;;;;;;;1.63;1.52;;;18.30;68.30;;;;;;5053416;28;20055;-72
2021/10/03 04:14:44;;;;;;;1.83;1.73;;;18.30;68.30;;;;;;5055546;28;20040;-72
2021/10/03 04:17:10;;;;;;;2.00;1.77;;;18.40;67.80;;;;;;5055404;28;20493;-72
2021/10/03 04:19:36;;;;;;;2.40;2.20;;;18.50;67.50;;;;;;5055424;28;20041;-72
2021/10/03 04:22:03;;;;;;;6.63;2.58;;;18.50;67.30;;;;;;5064600;28;20377;-73
2021/10/03 04:24:29;;;;;;;3.30;2.58;;;18.60;66.90;;;;;;5064335;28;20037;-73
2021/10/03 04:26:55;;;;;;;1.75;1.60;;;18.60;67.20;;;;;;5055227;28;20055;-72
2021/10/03 04:29:21;;;;;;;2.10;1.90;;;18.60;67.20;;;;;;5037357;28;20486;-72
2021/10/03 04:31:48;;;;;;;2.00;1.80;;;18.70;66.50;;;;;;5055483;28;20028;-72
2021/10/03 04:34:14;;;;;;;4.10;1.90;;;18.70;66.40;;;;;;5055403;28;20056;-73
2021/10/03 04:36:40;;;;;;;2.38;1.90;;;18.80;66.00;;;;;;5055290;28;20025;-73
2021/10/03 04:39:09;;;;;;;3.42;2.42;;;18.90;65.80;;;;;;5054895;28;20036;-72
2021/10/03 04:41:35;;;;;;;2.50;2.30;;;18.90;65.60;;;;;;5054812;28;20029;-72
2021/10/03 04:44:02;;;;;;;1.98;1.85;;;18.90;65.80;;;;;;5055522;28;20040;-73
2021/10/03 04:46:28;;;;;;;4.78;1.77;;;18.90;65.80;;;;;;5030806;28;20049;-72
2021/10/03 04:48:54;;;;;;;3.25;2.72;;;18.90;65.80;;;;;;5015419;28;20038;-72
2021/10/03 04:51:20;;;;;;;2.55;1.98;;;18.90;65.60;;;;;;5014773;28;20029;-73
2021/10/03 04:53:46;;;;;;;3.03;2.40;;;18.90;65.80;;;;;;5014999;28;20034;-72
2021/10/03 04:56:13;;;;;;;3.38;1.90;;;18.80;66.00;;;;;;5015381;28;20435;-74
2021/10/03 04:58:39;;;;;;;4.85;3.15;;;18.80;65.90;;;;;;5015212;28;20034;-72
2021/10/03 05:01:05;;;;;;;2.63;2.15;;;18.80;65.80;;;;;;5015133;28;20040;-72
2021/10/03 05:03:35;;;;;;;5.30;2.15;;;18.80;66.10;;;;;;5014507;28;20030;-73
2021/10/03 05:06:03;;;;;;;2.45;2.25;;;18.80;66.20;;;;;;5015227;28;20491;-73
2021/10/03 05:08:29;;;;;;;2.35;2.00;;;18.70;66.10;;;;;;5029079;28;20045;-74
2021/10/03 05:10:55;;;;;;;3.55;2.42;;;18.70;66.40;;;;;;5014998;28;20034;-73
2021/10/03 05:13:22;;;;;;;4.15;2.60;;;18.70;66.20;;;;;;5014626;28;20038;-73
2021/10/03 05:15:48;;;;;;;1.65;1.55;;;18.70;66.00;;;;;;5014491;28;20033;-73
2021/10/03 05:18:14;;;;;;;5.60;2.63;;;18.80;65.80;;;;;;5014265;28;20054;-75
2021/10/03 05:20:40;;;;;;;3.20;2.55;;;18.80;65.60;;;;;;5014033;28;20029;-73
2021/10/03 05:23:06;;;;;;;1.70;1.33;;;18.80;65.20;;;;;;5014594;28;20349;-72
2021/10/03 05:25:32;;;;;;;3.58;1.90;;;18.80;65.10;;;;;;5013734;28;20061;-73
2021/10/03 05:27:59;;;;;;;2.83;2.28;;;18.90;65.00;;;;;;5014632;28;20388;-73
2021/10/03 05:30:25;;;;;;;2.28;1.85;;;19.00;64.30;;;;;;5013396;28;20033;-73
2021/10/03 05:32:52;;;;;;;2.95;2.42;;;19.10;64.00;;;;;;5014255;28;20041;-73
2021/10/03 05:35:19;;;;;;;4.00;2.55;;;19.10;63.90;;;;;;5012518;28;20034;-73
2021/10/03 05:37:45;;;;;;;2.10;1.90;;;19.20;63.70;;;;;;5018452;28;20058;-73
2021/10/03 05:40:11;;;;;;;2.00;1.70;;;19.20;63.70;;;;;;5013915;28;20041;-73
2021/10/03 05:42:38;;;;;;;2.47;1.92;;;19.20;63.50;;;;;;5013821;28;20045;-74
2021/10/03 05:45:07;;;;;;;3.65;1.73;;;19.20;63.30;;;;;;5028453;28;20053;-73
2021/10/03 05:47:35;;;;;;;2.25;1.77;;;19.20;63.10;;;;;;5054780;28;20761;-73
2021/10/03 05:50:01;;;;;;;2.40;1.88;;;19.30;63.10;;;;;;5057335;28;20044;-73
2021/10/03 05:52:30;;;;;;;5.38;2.13;;;19.30;63.10;;;;;;5054096;28;20473;-72
2021/10/03 05:54:56;;;;;;;3.35;2.03;;;19.30;62.70;;;;;;5053660;28;20048;-72
2021/10/03 05:57:23;;;;;;;2.15;1.95;;;19.40;62.70;;;;;;5053426;28;20470;-73
2021/10/03 05:59:49;;;;;;;2.28;2.05;;;19.40;62.10;;;;;;5053395;28;20044;-73
2021/10/03 06:02:15;;;;;;;3.40;2.30;;;19.50;62.40;;;;;;5035604;28;20043;-74
2021/10/03 06:04:41;;;;;;;2.03;1.83;;;19.40;62.10;;;;;;5065689;28;20029;-74
2021/10/03 06:07:07;;;;;;;1.77;1.58;;;19.40;62.50;;;;;;5053049;28;20045;-73
2021/10/03 06:09:34;;;;;;;1.55;1.33;;;19.40;62.10;;;;;;5053523;28;20032;-73
2021/10/03 06:12:00;;;;;;;1.95;1.75;;;19.50;61.80;;;;;;5053109;28;20041;-73
2021/10/03 06:14:26;;;;;;;1.98;1.73;;;19.50;62.00;;;;;;5046301;28;20052;-72
2021/10/03 06:16:52;;;;;;;2.03;1.85;;;19.50;62.60;;;;;;5053644;28;20036;-75
2021/10/03 06:19:18;;;;;;;2.75;2.17;;;19.40;62.50;;;;;;5046695;28;20033;-73
2021/10/03 06:21:45;;;;;;;2.22;2.03;;;19.40;62.40;;;;;;5052966;28;20386;-74
2021/10/03 06:24:12;;;;;;;4.68;2.15;;;19.40;62.80;;;;;;5053136;28;20029;-73
2021/10/03 06:26:39;;;;;;;2.70;1.95;;;19.40;62.90;;;;;;5051403;28;20049;-74
2021/10/03 06:29:06;;;;;;;2.20;2.00;;;19.40;62.90;;;;;;5053668;28;20039;-74
2021/10/03 06:31:33;;;;;;;4.38;1.85;;;19.40;63.20;;;;;;5053349;28;20029;-73
2021/10/03 06:33:59;;;;;;;1.70;1.60;;;19.40;63.40;;;;;;5052306;28;20505;-74
2021/10/03 06:36:25;;;;;;;1.88;1.65;;;19.30;63.80;;;;;;5036126;28;20028;-74
2021/10/03 06:38:51;;;;;;;3.95;2.00;;;19.30;63.90;;;;;;5065994;28;20041;-74
2021/10/03 06:41:17;;;;;;;1.95;1.33;;;19.20;64.20;;;;;;5052800;28;20036;-75
2021/10/03 06:43:44;;;;;;;1.83;1.73;;;19.20;63.70;;;;;;5059764;28;20051;-74
2021/10/03 06:46:10;;;;;;;1.90;1.67;;;19.20;64.00;;;;;;5060759;28;20056;-75
2021/10/03 06:48:36;;;;;;;2.55;2.35;;;19.20;64.00;;;;;;5051881;28;20040;-74
2021/10/03 06:51:03;;;;;;;2.58;1.67;;;19.20;63.60;;;;;;5052816;28;20037;-74
2021/10/03 06:53:30;;;;;;;2.67;1.98;;;19.20;63.80;;;;;;5052689;28;20128;-74
2021/10/03 06:55:56;;;;;;;2.60;1.55;;;19.20;63.90;;;;;;5052925;28;20045;-74
2021/10/03 06:58:22;;;;;;;1.70;1.60;;;19.20;64.00;;;;;;5052448;28;20382;-72
2021/10/03 07:00:48;;;;;;;2.35;2.15;;;19.30;63.40;;;;;;5050396;28;20064;-73
2021/10/03 07:03:14;;;;;;;1.58;1.48;;;19.30;63.30;;;;;;5054083;28;20045;-74
2021/10/03 07:05:41;;;;;;;2.15;1.83;;;19.40;63.60;;;;;;5064205;28;20041;-74
2021/10/03 07:08:07;;;;;;;2.72;2.40;;;19.40;64.30;;;;;;5052564;28;20037;-74
2021/10/03 07:10:33;;;;;;;2.25;2.00;;;19.40;63.60;;;;;;5052803;28;20050;-74
2021/10/03 07:13:00;;;;;;;1.98;1.70;;;19.40;63.40;;;;;;5052462;28;20037;-72
2021/10/03 07:15:26;;;;;;;1.92;1.80;;;19.40;63.30;;;;;;5052452;28;20478;-76
2021/10/03 07:17:52;;;;;;;3.60;1.55;;;19.40;63.50;;;;;;5059872;28;20363;-77
2021/10/03 07:20:18;;;;;;;1.52;1.42;;;19.40;64.00;;;;;;5062096;28;20024;-77
2021/10/03 07:22:44;;;;;;;3.22;1.63;;;19.30;64.50;;;;;;5052237;28;20033;-75
2021/10/03 07:25:11;;;;;;;1.83;1.70;;;19.30;63.90;;;;;;5053040;28;20041;-78
2021/10/03 07:27:37;;;;;;;1.83;1.73;;;19.40;64.00;;;;;;5052446;28;20455;-76
2021/10/03 07:30:04;;;;;;;2.67;1.70;;;19.40;63.20;;;;;;5052815;28;20028;-76
2021/10/03 07:32:31;;;;;;;3.33;2.67;;;19.50;63.80;;;;;;5052336;28;20040;-75
2021/10/03 07:34:57;;;;;;;2.17;1.98;;;19.60;63.00;;;;;;5052893;28;20040;-77
2021/10/03 07:37:23;;;;;;;2.05;1.92;;;19.60;62.70;;;;;;5052456;28;20029;-76
2021/10/03 07:39:50;;;;;;;3.03;2.60;;;19.60;62.90;;;;;;5061721;28;20033;-76
2021/10/03 07:42:16;;;;;;;2.40;1.83;;;19.60;63.30;;;;;;5053023;28;20032;-77
2021/10/03 07:44:42;;;;;;;2.50;1.95;;;19.60;63.80;;;;;;5038104;28;20057;-76
2021/10/03 07:47:09;;;;;;;2.65;1.83;;;19.60;62.90;;;;;;5031627;28;20045;-77
2021/10/03 07:49:38;;;;;;;2.08;1.88;;;19.70;62.40;;;;;;5014356;28;20032;-77
2021/10/03 07:52:05;;;;;;;1.90;1.80;;;19.80;62.80;;;;;;5031159;28;20355;-74
2021/10/03 07:54:31;;;;;;;2.35;1.98;;;19.80;63.00;;;;;;5031091;28;20042;-74
2021/10/03 07:56:57;;;;;;;2.72;2.28;;;19.80;62.60;;;;;;5031160;28;20034;-73
2021/10/03 07:59:23;;;;;;;2.33;2.13;;;19.90;62.80;;;;;;5030552;28;20040;-75
2021/10/03 08:01:49;;;;;;;2.60;2.35;;;19.90;62.70;;;;;;5030947;28;20359;-75
2021/10/03 08:04:15;;;;;;;3.13;2.15;;;19.90;62.60;;;;;;5031263;28;20029;-75
2021/10/03 08:06:42;;;;;;;2.53;2.33;;;19.90;62.70;;;;;;5035161;28;20037;-75
2021/10/03 08:09:08;;;;;;;2.50;2.30;;;19.90;63.00;;;;;;5028006;28;20037;-76
2021/10/03 08:11:34;;;;;;;2.55;2.35;;;19.80;63.00;;;;;;5025182;28;20029;-76
2021/10/03 08:14:00;;;;;;;2.15;1.95;;;19.80;62.80;;;;;;5029403;28;20036;-77
2021/10/03 08:16:27;;;;;;;2.25;2.05;;;19.80;62.50;;;;;;5032099;28;20037;-75
2021/10/03 08:18:57;;;;;;;2.97;2.38;;;19.90;62.70;;;;;;5030126;28;20030;-76
2021/10/03 08:21:25;;;;;;;3.28;2.45;;;19.90;62.40;;;;;;5028862;28;20042;-76
2021/10/03 08:23:51;;;;;;;2.78;2.10;;;19.80;62.80;;;;;;5030574;28;20041;-75
2021/10/03 08:26:18;;;;;;;2.88;2.45;;;19.80;62.60;;;;;;5026339;28;20046;-77
2021/10/03 08:28:44;;;;;;;1.95;1.85;;;19.80;62.30;;;;;;5040139;28;20053;-76
2021/10/03 08:31:11;;;;;;;1.90;1.67;;;19.80;62.70;;;;;;5031566;28;20030;-75
2021/10/03 08:33:40;;;;;;;2.30;2.10;;;19.90;62.60;;;;;;5030284;28;20045;-76
2021/10/03 08:36:09;;;;;;;1.52;1.42;;;19.90;62.30;;;;;;5030539;28;20037;-76
2021/10/03 08:38:35;;;;;;;6.75;2.17;;;19.90;62.50;;;;;;5031213;28;20041;-75
2021/10/03 08:41:05;;;;;;;2.75;1.95;;;19.90;62.80;;;;;;5027499;28;20048;-76
2021/10/03 08:43:31;;;;;;;2.83;2.17;;;19.90;63.60;;;;;;5029468;28;20026;-76
2021/10/03 08:45:59;;;;;;;2.03;1.85;;;19.90;63.00;;;;;;5056008;28;20048;-75
2021/10/03 08:48:26;;;;;;;2.00;1.83;;;19.90;63.50;;;;;;5047395;28;20039;-76
2021/10/03 08:50:53;;;;;;;3.03;2.10;;;19.90;64.20;;;;;;5053065;28;20047;-74
2021/10/03 08:53:19;;;;;;;1.83;1.73;;;19.90;63.70;;;;;;5057286;28;20043;-76
2021/10/03 08:55:46;;;;;;;1.88;1.77;;;19.90;62.80;;;;;;5069352;28;20033;-76
2021/10/03 08:58:17;;;;;;;2.50;2.30;;;20.00;62.80;;;;;;5057963;28;20106;-75
2021/10/03 09:00:48;;;;;;;1.63;1.52;;;19.90;63.10;;;;;;5070951;28;20021;-75
2021/10/03 09:03:17;;;;;;;2.53;1.60;;;20.00;62.50;;;;;;5062730;28;20040;-75
2021/10/03 09:05:52;;;;;;;2.42;1.98;;;20.00;62.60;;;;;;5074331;28;20041;-75
2021/10/03 09:08:23;;;;;;;1.98;1.55;;;20.00;62.20;;;;;;5068720;28;20038;-76
2021/10/03 09:10:57;;;;;;;3.17;2.88;;;20.00;62.00;;;;;;5060770;28;20033;-76
2021/10/03 09:13:29;;;;;;;1.77;1.40;;;20.00;62.20;;;;;;5057324;28;20036;-75
2021/10/03 09:16:29;;;;;;;1.60;1.42;;;20.00;62.20;;;;;;5071186;28;20474;-75
2021/10/03 09:19:10;;;;;;;3.00;2.20;;;20.10;62.00;;;;;;5053923;28;20036;-77
2021/10/03 09:21:42;;;;;;;2.13;1.92;;;20.10;62.20;;;;;;5069803;28;20031;-77
2021/10/03 09:24:12;;;;;;;1.42;1.33;;;20.00;62.20;;;;;;5059737;28;20474;-76
2021/10/03 09:26:51;;;;;;;1.77;1.67;;;20.10;62.40;;;;;;5059460;28;20265;-76
2021/10/03 09:29:23;;;;;;;2.60;1.87;;;20.00;62.80;;;;;;5055434;28;20036;-76
2021/10/03 09:32:07;;;;;;;4.47;2.22;;;20.20;62.60;;;;;;5054725;28;20757;-78
2021/10/03 09:34:35;;;;;;;4.20;1.83;;;20.20;62.40;;;;;;5054106;28;20025;-79
2021/10/03 09:37:24;;;;;;;1.60;1.50;;;20.20;62.20;;;;;;5067133;28;20044;-78
2021/10/03 09:40:04;;;;;;;2.40;2.15;;;20.20;61.80;;;;;;5054129;28;20037;-74
2021/10/03 09:42:32;;;;;;;2.25;1.70;;;20.30;61.40;;;;;;5055020;28;20037;-75
2021/10/03 09:45:14;;;;;;;2.88;2.00;;;20.20;61.50;;;;;;5045708;28;20433;-76
2021/10/03 09:47:42;;;;;;;3.47;2.38;;;20.30;61.40;;;;;;5054076;28;20478;-76
2021/10/03 09:50:11;;;;;;;2.60;1.98;;;20.30;60.80;;;;;;5062410;28;20375;-76
2021/10/03 09:52:38;;;;;;;2.15;1.95;;;20.30;61.30;;;;;;5051504;28;20040;-77
2021/10/03 09:55:09;;;;;;;2.95;2.13;;;20.30;61.30;;;;;;5059191;28;20056;-75
2021/10/03 09:57:38;;;;;;;5.47;1.95;;;20.40;61.00;;;;;;5072714;28;20393;-76
2021/10/03 10:00:04;;;;;;;2.63;1.85;;;20.40;60.80;;;;;;5055292;28;20036;-76
2021/10/03 10:02:31;;;;;;;2.67;1.83;;;20.40;61.20;;;;;;5053580;28;20036;-76
2021/10/03 10:04:58;;;;;;;1.98;1.75;;;20.40;61.40;;;;;;5053693;28;20053;-75
2021/10/03 10:07:26;;;;;;;2.15;1.65;;;20.40;61.40;;;;;;5053597;28;20040;-76
2021/10/03 10:09:52;;;;;;;1.63;1.52;;;20.40;61.40;;;;;;5069627;28;20036;-78
2021/10/03 10:12:22;;;;;;;2.92;1.30;;;20.50;61.20;;;;;;5054969;28;20037;-76
2021/10/03 10:15:00;;;;;;;1.80;1.35;;;20.60;61.00;;;;;;5054689;28;20033;-75
2021/10/03 10:17:36;;;;;;;1.50;1.40;;;20.60;60.80;;;;;;5065406;28;20033;-76
2021/10/03 10:20:17;;;;;;;2.85;1.40;;;20.70;61.00;;;;;;5062298;28;20390;-76
2021/10/03 10:22:57;;;;;;;1.58;1.48;;;20.70;60.30;;;;;;5072809;28;20031;-76
2021/10/03 10:25:43;;;;;;;4.50;1.95;;;20.80;60.40;;;;;;5057807;28;20486;-75
2021/10/03 10:28:11;;;;;;;2.13;1.85;;;20.80;60.00;;;;;;5062251;28;20035;-77
2021/10/03 10:31:00;;;;;;;2.08;1.58;;;20.90;59.70;;;;;;5073158;28;20039;-76
2021/10/03 10:33:47;;;;;;;1.60;1.50;;;21.00;60.00;;;;;;5059118;28;20028;-75
2021/10/03 10:36:22;;;;;;;9.13;2.78;;;21.10;59.60;;;;;;5066352;28;20032;-77
2021/10/03 10:39:07;;;;;;;12.13;2.20;;;21.10;60.00;;;;;;5058785;28;20029;-77
2021/10/03 10:41:52;;;;;;;2.33;1.92;;;21.10;59.40;;;;;;5052748;28;20029;-77
2021/10/03 10:44:25;;;;;;;3.05;1.45;;;21.10;59.60;;;;;;5053260;28;20394;-76
2021/10/03 10:46:53;;;;;;;1.60;1.50;;;21.20;59.50;;;;;;5053272;28;20040;-76
2021/10/03 10:49:25;;;;;;;1.70;1.60;;;21.30;59.30;;;;;;5056052;28;20378;-75
2021/10/03 10:52:22;;;;;;;1.55;1.45;;;21.30;58.90;;;;;;5043172;28;20037;-75
2021/10/03 10:55:09;;;;;;;15.23;2.13;;;21.40;58.90;;;;;;5069333;28;20037;-75
2021/10/03 10:57:57;;;;;;;2.42;2.08;;;21.40;60.00;;;;;;5053222;28;20033;-75
2021/10/03 11:00:32;;;;;;;2.72;1.80;;;21.30;59.10;;;;;;5052867;28;20037;-76
2021/10/03 11:03:03;;;;;;;3.00;1.83;;;21.30;59.50;;;;;;5036521;28;20037;-75
2021/10/03 11:05:53;;;;;;;2.00;1.70;;;21.30;59.10;;;;;;5053195;28;20049;-76
2021/10/03 11:08:20;;;;;;;6.07;1.63;;;21.40;61.40;;;;;;5054867;28;20032;-75
2021/10/03 11:10:59;;;;;;;1.73;1.42;;;21.50;60.00;;;;;;5066790;28;20043;-76
2021/10/03 11:13:39;;;;;;;1.67;1.58;;;21.60;59.70;;;;;;5051734;28;20052;-77
2021/10/03 11:16:28;;;;;;;2.63;1.60;;;21.70;59.10;;;;;;5055190;28;20402;-75
2021/10/03 11:18:59;;;;;;;2.20;2.00;;;21.80;59.40;;;;;;5068948;28;20044;-75
2021/10/03 11:21:27;;;;;;;2.05;1.77;;;21.90;59.50;;;;;;5053993;28;20036;-77
2021/10/03 11:23:55;;;;;;;2.45;2.25;;;22.00;59.20;;;;;;5054156;28;20044;-76
2021/10/03 11:26:23;;;;;;;2.80;1.23;;;22.30;59.00;;;;;;5061308;28;20028;-78
2021/10/03 11:28:57;;;;;;;2.10;1.60;;;22.60;58.50;;;;;;5069858;28;20041;-75
2021/10/03 11:31:49;;;;;;;2.50;1.85;;;22.80;57.40;;;;;;5052583;28;20044;-76
2021/10/03 11:34:42;;;;;;;2.50;1.83;;;22.80;57.00;;;;;;5056680;28;20033;-76
2021/10/03 11:37:33;;;;;;;1.83;1.33;;;22.80;57.30;;;;;;5052531;28;20033;-77
2021/10/03 11:40:27;;;;;;;5.20;2.30;;;22.90;57.30;;;;;;5066779;28;20040;-75
2021/10/03 11:42:59;;;;;;;3.60;1.95;;;23.00;56.80;;;;;;5063465;28;20477;-77
2021/10/03 11:45:34;;;;;;;1.58;1.48;;;23.10;55.70;;;;;;5053807;28;20053;-78
2021/10/03 11:48:06;;;;;;;2.00;1.85;;;23.00;55.60;;;;;;5060846;28;20496;-77
2021/10/03 11:50:40;;;;;;;3.20;2.38;;;23.00;55.80;;;;;;5052969;28;20216;-76
2021/10/03 11:53:21;;;;;;;1.40;1.30;;;23.20;56.00;;;;;;5052424;28;20032;-74
2021/10/03 11:55:51;;;;;;;2.33;1.50;;;23.40;55.80;;;;;;5029315;28;20041;-76
2021/10/03 11:58:27;;;;;;;2.90;1.67;;;23.60;56.00;;;;;;5054006;28;20039;-75
2021/10/03 12:00:58;;;;;;;6.72;1.75;;;23.60;55.50;;;;;;5062456;28;20298;-77
2021/10/03 12:03:29;;;;;;;1.50;1.33;;;23.50;54.60;;;;;;5053966;28;20033;-76
2021/10/03 12:05:58;;;;;;;1.55;1.45;;;23.30;54.70;;;;;;5037365;28;20045;-75
2021/10/03 12:08:26;;;;;;;7.03;2.13;;;23.20;54.60;;;;;;5044643;28;20040;-75
2021/10/03 12:10:59;;;;;;;7.28;2.00;;;23.30;54.30;;;;;;5051507;28;20356;-76
2021/10/03 12:13:26;;;;;;;3.08;1.92;;;23.40;54.90;;;;;;5061453;28;20409;-76
2021/10/03 12:16:17;;;;;;;4.97;1.48;;;23.50;54.50;;;;;;5073912;28;20036;-76
2021/10/03 12:18:49;;;;;;;3.25;1.73;;;23.50;54.40;;;;;;5035671;28;20040;-77
2021/10/03 12:21:24;;;;;;;1.80;1.45;;;23.30;54.10;;;;;;5055564;28;20390;-76
2021/10/03 12:23:53;;;;;;;2.45;1.38;;;23.30;54.90;;;;;;5054461;28;20037;-77
2021/10/03 12:26:29;;;;;;;1.20;1.02;;;23.20;54.50;;;;;;5055290;28;20479;-77
2021/10/03 12:28:58;;;;;;;2.15;1.70;;;23.00;54.40;;;;;;5064485;28;20045;-76
2021/10/03 12:31:41;;;;;;;5.10;1.65;;;23.00;54.40;;;;;;5048595;28;20029;-77
2021/10/03 12:34:13;;;;;;;2.28;1.67;;;23.00;54.90;;;;;;5070736;28;20466;-77
2021/10/03 12:36:40;;;;;;;2.85;1.67;;;23.00;55.00;;;;;;5049322;28;20044;-78
2021/10/03 12:39:07;;;;;;;3.45;1.60;;;23.00;54.70;;;;;;5047819;28;20041;-76
2021/10/03 12:41:33;;;;;;;1.77;1.55;;;23.10;54.90;;;;;;5073316;28;20033;-75
2021/10/03 12:44:00;;;;;;;1.70;1.30;;;23.30;54.50;;;;;;5066786;28;20299;-73
2021/10/03 12:46:27;;;;;;;2.50;1.90;;;23.50;55.20;;;;;;5056297;28;20057;-74
2021/10/03 12:48:53;;;;;;;2.28;1.60;;;23.70;54.60;;;;;;5037820;28;20033;-74
2021/10/03 12:51:20;;;;;;;2.35;1.38;;;23.80;54.60;;;;;;5054114;28;20497;-75
2021/10/03 12:53:47;;;;;;;1.65;1.50;;;23.90;54.40;;;;;;5046648;28;20029;-75
2021/10/03 12:56:16;;;;;;;3.03;2.17;;;24.00;54.20;;;;;;5055203;28;20390;-74